Newcastle Airport
YWLM : now visible

Airfield :











YOU CAN JOIN US ON...

 
LOGIN :

Register | Disclaimer

   EN    FR    IT 

 









Legend :    VFR   Marginal VFR   IFR   Intensive IFR   Very Intensive IFR
Visi :
Ceiling :
>= 8 km
>= 3000ft
5 to 8 km
1000 to 3000 ft
1500m to 5 km
500 to 1000 ft
800 to 1500m
200 to 500 ft
< 800m
< 200 ft
Symbols :   Thunderstorms  Fog  Heavy snow  Heavy precipitations  Wind > 20 kt






- Airport Elevation : 31 ft
- IATA code : NTL


YWLM - Newcastle

CURRENT METAR :
  • 272330Z 13004KT 050V190 CAVOK 29/21 Q1012

EXPIRED METARs :
  • 272300Z 34003KT CAVOK 29/22 Q1012
  • 272230Z 28003KT CAVOK 28/21 Q1012 FM2300 04008KT CAVOK
  • 272200Z 04004KT 360V060 CAVOK 26/20 Q1012
  • 272130Z 31004KT CAVOK 25/20 Q1012 FM2200 04008KT 9999 FEW020
  • 272100Z 00000KT CAVOK 24/20 Q1012

TAF TAF YWLM
Valid from the 28 at 00:00 until the 29 at 00:00 UTC


272318Z 2800/2900 06011KT 9999 FEW020 SCT030
FM280600 17010KT 9999 -SHRA FEW010 BKN020
FM282000 19015KT 9999 -SHRA SCT010 BKN020
PROB30 INTER 2805/2810 4000 TSRA BKN010 SCT045CB



MET'MAP, your aeronautical weather chart ! - Copyright ORBIFLY December 2007 - Disclaimer

ORBIFLY MET'MAP TEAM :

Programming & Development : Alexandra Zaïnal
Concept & original design : Baudouin d'Aumeries
Assistance for programming : Marc-Olivier Méhu
Technical & hardware support : Manuel Goepfert

Contact : metmap@orbifly.com




SOURCES & CREDITS :

   NOAA       Earth
Advisory